Time;durP1;ratioP1;P1;durP2;ratioP2;P2;SDS_P1;SDS_P2;PMS_P1;PMS_P2;Temp;Humidity;BMP_temperature;BMP_pressure;BME280_temperature;BME280_humidity;BME280_pressure;Samples;Min_cycle;Max_cycle;Signal;HPM_P1;HPM_P2
2023/02/14 00:01:09;;;;;;;59.97;32.65;;;;;;;;;;6327909;28;20056;-72
2023/02/14 00:04:11;;;;;;;61.08;34.33;;;;;;;;;;6324845;27;20102;-72
2023/02/14 00:07:13;;;;;;;60.65;32.75;;;;;;;;;;6327404;28;20051;-72
2023/02/14 00:10:16;;;;;;;62.13;33.45;;;;;;;;;;6325091;28;20044;-72
2023/02/14 00:13:18;;;;;;;65.67;34.63;;;;;;;;;;6325281;28;20036;-73
2023/02/14 00:16:19;;;;;;;64.88;33.50;;;;;;;;;;6327477;28;20278;-72
2023/02/14 00:19:21;;;;;;;62.00;32.33;;;;;;;;;;6324849;27;20063;-72
2023/02/14 00:22:23;;;;;;;60.67;34.75;;;;;;;;;;6324581;28;20278;-72
2023/02/14 00:25:26;;;;;;;82.97;44.03;;;;;;;;;;6326417;27;20048;-73
2023/02/14 00:28:28;;;;;;;184.82;85.40;;;;;;;;;;6322821;28;20083;-74
2023/02/14 00:31:29;;;;;;;90.90;49.25;;;;;;;;;;6327685;27;20056;-74
2023/02/14 00:34:32;;;;;;;112.50;55.08;;;;;;;;;;6324122;28;20056;-74
2023/02/14 00:37:34;;;;;;;82.40;44.45;;;;;;;;;;6325995;28;20388;-73
2023/02/14 00:40:37;;;;;;;102.53;52.58;;;;;;;;;;6325857;28;20110;-74
2023/02/14 00:43:38;;;;;;;65.90;35.70;;;;;;;;;;6321119;28;20101;-75
2023/02/14 00:46:40;;;;;;;66.95;34.42;;;;;;;;;;6327224;28;20335;-72
2023/02/14 00:49:42;;;;;;;63.83;35.60;;;;;;;;;;6326012;28;20059;-73
2023/02/14 00:52:43;;;;;;;63.80;34.35;;;;;;;;;;6326225;28;20059;-72
2023/02/14 00:55:46;;;;;;;65.63;35.13;;;;;;;;;;6325553;28;20052;-72
2023/02/14 00:58:48;;;;;;;60.13;34.42;;;;;;;;;;6327400;27;20251;-73
2023/02/14 01:01:50;;;;;;;60.45;33.30;;;;;;;;;;6324248;28;20101;-73
2023/02/14 01:04:51;;;;;;;64.97;34.53;;;;;;;;;;6325154;28;20056;-72
2023/02/14 01:07:53;;;;;;;63.25;34.35;;;;;;;;;;6323012;28;20133;-72
2023/02/14 01:10:56;;;;;;;63.65;35.50;;;;;;;;;;6325194;27;20389;-72
2023/02/14 01:13:59;;;;;;;60.33;34.65;;;;;;;;;;6319969;28;20062;-72
2023/02/14 01:17:00;;;;;;;66.68;34.90;;;;;;;;;;6328939;27;20040;-73
2023/02/14 01:20:02;;;;;;;61.28;32.83;;;;;;;;;;6325464;28;20048;-73
2023/02/14 01:23:04;;;;;;;64.25;33.92;;;;;;;;;;6324794;27;20052;-72
2023/02/14 01:26:07;;;;;;;62.47;35.40;;;;;;;;;;6322614;28;20056;-73
2023/02/14 01:29:09;;;;;;;60.50;34.30;;;;;;;;;;6323474;28;20059;-73
2023/02/14 01:35:37;;;;;;;61.40;35.10;;;;;;;;;;6313800;28;20052;-73
2023/02/14 01:38:39;;;;;;;66.03;35.00;;;;;;;;;;6324379;27;20044;-73
2023/02/14 01:41:43;;;;;;;65.88;35.17;;;;;;;;;;6326739;27;20055;-73
2023/02/14 01:45:00;;;;;;;63.45;35.78;;;;;;;;;;6326955;27;20063;-73
2023/02/14 01:48:02;;;;;;;64.35;35.58;;;;;;;;;;6322539;28;20052;-73
2023/02/14 01:51:04;;;;;;;61.60;35.30;;;;;;;;;;6322748;28;20293;-73
2023/02/14 01:54:06;;;;;;;72.22;36.35;;;;;;;;;;6320132;28;20044;-72
2023/02/14 01:57:13;;;;;;;77.70;35.90;;;;;;;;;;6326220;28;20040;-73
2023/02/14 02:03:41;;;;;;;66.97;34.92;;;;;;;;;;6327645;28;20048;-73
2023/02/14 02:06:45;;;;;;;68.97;38.05;;;;;;;;;;6323091;27;20060;-73
2023/02/14 02:09:50;;;;;;;61.15;34.17;;;;;;;;;;6329041;28;20063;-74
2023/02/14 02:12:54;;;;;;;63.92;34.63;;;;;;;;;;6323093;28;20116;-73
2023/02/14 02:16:10;;;;;;;59.90;35.17;;;;;;;;;;6324860;27;20060;-74
2023/02/14 02:19:42;;;;;;;60.97;35.25;;;;;;;;;;6317626;27;20044;-73
2023/02/14 02:23:02;;;;;;;62.92;34.67;;;;;;;;;;6322717;27;20075;-73
2023/02/14 02:26:38;;;;;;;64.70;34.92;;;;;;;;;;6324311;27;20060;-73
2023/02/14 02:30:01;;;;;;;58.58;33.90;;;;;;;;;;6325253;28;20076;-73
2023/02/14 02:33:36;;;;;;;57.17;33.50;;;;;;;;;;6321695;27;20054;-73
2023/02/14 02:36:52;;;;;;;60.88;34.58;;;;;;;;;;6320468;28;20051;-72
2023/02/14 02:40:04;;;;;;;59.70;34.00;;;;;;;;;;6323180;27;20055;-73
2023/02/14 02:43:14;;;;;;;61.38;32.80;;;;;;;;;;6323285;28;20328;-73
2023/02/14 02:53:14;;;;;;;64.13;34.80;;;;;;;;;;6326603;28;20055;-73
2023/02/14 02:59:42;;;;;;;59.95;33.30;;;;;;;;;;6322091;28;20048;-73
2023/02/14 03:06:06;;;;;;;59.72;32.80;;;;;;;;;;6322338;28;20044;-72
2023/02/14 03:09:13;;;;;;;57.13;33.58;;;;;;;;;;6322826;28;20110;-73
2023/02/14 03:12:36;;;;;;;59.55;33.47;;;;;;;;;;6322432;28;20044;-73
2023/02/14 03:15:54;;;;;;;56.72;32.75;;;;;;;;;;6320171;28;20044;-73
2023/02/14 03:19:04;;;;;;;57.65;32.95;;;;;;;;;;6318086;28;20048;-74
2023/02/14 03:22:11;;;;;;;57.40;31.33;;;;;;;;;;6321310;28;20048;-73
2023/02/14 03:25:21;;;;;;;61.70;32.65;;;;;;;;;;6321874;27;20089;-74
2023/02/14 03:28:27;;;;;;;57.03;32.78;;;;;;;;;;6321473;28;20248;-73
2023/02/14 03:31:31;;;;;;;59.45;32.50;;;;;;;;;;6325910;28;20380;-73
2023/02/14 03:34:36;;;;;;;;;;;;;;;;;;6329854;28;20044;-73
2023/02/14 03:37:44;;;;;;;53.03;30.48;;;;;;;;;;6323221;28;20507;-73
2023/02/14 03:40:53;;;;;;;54.72;29.98;;;;;;;;;;6321894;28;20043;-73
2023/02/14 03:43:57;;;;;;;55.08;30.55;;;;;;;;;;6320890;28;20155;-73
2023/02/14 03:47:02;;;;;;;54.10;30.40;;;;;;;;;;6319377;27;20051;-73
2023/02/14 03:50:07;;;;;;;58.10;31.08;;;;;;;;;;6325807;28;20044;-73
2023/02/14 03:53:10;;;;;;;55.55;30.05;;;;;;;;;;6322292;28;20044;-73
2023/02/14 03:56:15;;;;;;;55.15;30.10;;;;;;;;;;6321648;28;20094;-73
2023/02/14 03:59:19;;;;;;;54.40;30.77;;;;;;;;;;6322120;28;20060;-74
2023/02/14 04:02:25;;;;;;;57.28;30.20;;;;;;;;;;6322620;28;20052;-74
2023/02/14 04:05:28;;;;;;;54.33;30.35;;;;;;;;;;6324329;28;20036;-73
2023/02/14 04:08:30;;;;;;;57.28;30.17;;;;;;;;;;6322602;27;20079;-73
2023/02/14 04:11:34;;;;;;;53.17;29.70;;;;;;;;;;6321852;28;20044;-73
2023/02/14 04:14:36;;;;;;;;;;;;;;;;;;6328995;28;20355;-73
2023/02/14 04:20:56;;;;;;;55.17;30.10;;;;;;;;;;6327397;28;20047;-73
2023/02/14 04:23:58;;;;;;;52.72;31.13;;;;;;;;;;6324828;28;20059;-73
2023/02/14 04:30:21;;;;;;;53.38;29.77;;;;;;;;;;6325441;28;20048;-73
2023/02/14 04:33:23;;;;;;;52.25;28.98;;;;;;;;;;6323768;28;20080;-73
2023/02/14 04:36:24;;;;;;;47.58;29.10;;;;;;;;;;6324026;28;20060;-73
2023/02/14 04:39:26;;;;;;;53.38;29.92;;;;;;;;;;6325299;28;20055;-73
2023/02/14 04:42:29;;;;;;;59.88;29.90;;;;;;;;;;6325626;27;20397;-73
2023/02/14 04:45:31;;;;;;;51.70;28.25;;;;;;;;;;6323404;28;20097;-73
2023/02/14 04:48:32;;;;;;;51.40;29.63;;;;;;;;;;6324226;28;20244;-73
2023/02/14 04:51:34;;;;;;;51.92;29.20;;;;;;;;;;6326775;28;20056;-73
2023/02/14 04:54:36;;;;;;;50.60;28.67;;;;;;;;;;6327449;28;20328;-73
2023/02/14 04:57:38;;;;;;;51.47;28.13;;;;;;;;;;6324441;28;20055;-73
2023/02/14 05:00:40;;;;;;;51.42;28.73;;;;;;;;;;6325140;28;20044;-73
2023/02/14 05:03:42;;;;;;;50.30;29.00;;;;;;;;;;6325432;28;20109;-73
2023/02/14 05:06:43;;;;;;;57.20;30.55;;;;;;;;;;6319458;27;20058;-73
2023/02/14 05:09:45;;;;;;;56.75;30.05;;;;;;;;;;6325688;28;20059;-73
2023/02/14 05:12:48;;;;;;;57.40;28.40;;;;;;;;;;6325201;27;20074;-73
2023/02/14 05:15:50;;;;;;;54.10;29.35;;;;;;;;;;6322922;28;20264;-73
2023/02/14 05:18:52;;;;;;;58.42;30.08;;;;;;;;;;6326492;28;20048;-74
2023/02/14 05:21:53;;;;;;;55.85;28.52;;;;;;;;;;6322512;27;20052;-73
2023/02/14 05:24:55;;;;;;;54.40;30.15;;;;;;;;;;6325591;28;20101;-73
2023/02/14 05:27:59;;;;;;;56.85;29.55;;;;;;;;;;6324844;28;20056;-73
2023/02/14 05:31:01;;;;;;;58.33;30.38;;;;;;;;;;6321257;28;20048;-73
2023/02/14 05:34:02;;;;;;;54.97;30.63;;;;;;;;;;6322897;28;20060;-73
2023/02/14 05:37:04;;;;;;;53.00;29.13;;;;;;;;;;6323337;27;20049;-73
2023/02/14 05:40:08;;;;;;;59.35;29.45;;;;;;;;;;6324075;28;20051;-73
2023/02/14 05:43:11;;;;;;;55.20;30.02;;;;;;;;;;6323107;28;20114;-73
2023/02/14 05:46:12;;;;;;;53.35;28.60;;;;;;;;;;6323403;28;20101;-74
2023/02/14 05:49:14;;;;;;;54.03;28.40;;;;;;;;;;6324161;28;20052;-73
2023/02/14 05:52:16;;;;;;;48.25;28.67;;;;;;;;;;6321440;28;20063;-73
2023/02/14 05:55:17;;;;;;;48.60;28.20;;;;;;;;;;6324851;28;20089;-73
2023/02/14 05:58:20;;;;;;;50.15;28.17;;;;;;;;;;6324368;28;20093;-73
2023/02/14 06:01:22;;;;;;;50.30;26.73;;;;;;;;;;6323411;28;20323;-72
2023/02/14 06:04:24;;;;;;;51.28;28.80;;;;;;;;;;6323951;27;20109;-73
2023/02/14 06:07:25;;;;;;;53.10;28.95;;;;;;;;;;6321991;28;20048;-71
2023/02/14 06:10:27;;;;;;;53.17;29.65;;;;;;;;;;6322964;28;20056;-72
2023/02/14 06:13:30;;;;;;;57.65;30.23;;;;;;;;;;6324123;28;20055;-71
2023/02/14 06:16:32;;;;;;;51.20;27.38;;;;;;;;;;6321562;27;20062;-75
2023/02/14 06:19:33;;;;;;;57.50;30.23;;;;;;;;;;6321391;28;20331;-73
2023/02/14 06:22:35;;;;;;;55.92;30.25;;;;;;;;;;6319869;27;20052;-74
2023/02/14 06:25:37;;;;;;;63.13;32.53;;;;;;;;;;6325082;28;20406;-75
2023/02/14 06:28:41;;;;;;;67.30;34.15;;;;;;;;;;6322565;28;20336;-77
2023/02/14 06:31:42;;;;;;;;;;;;;;;;;;6331727;27;20061;-74
2023/02/14 06:34:44;;;;;;;62.47;32.97;;;;;;;;;;6324545;27;19923;-73
2023/02/14 06:37:46;;;;;;;67.43;35.75;;;;;;;;;;6329611;28;20044;-73
2023/02/14 06:40:48;;;;;;;63.33;35.20;;;;;;;;;;6328882;27;20060;-72
2023/02/14 06:43:51;;;;;;;72.65;36.42;;;;;;;;;;6326801;28;20058;-72
2023/02/14 06:46:52;;;;;;;65.75;35.67;;;;;;;;;;6331311;28;20056;-73
2023/02/14 06:49:54;;;;;;;64.90;35.20;;;;;;;;;;6329818;28;20048;-73
2023/02/14 06:52:56;;;;;;;59.15;34.35;;;;;;;;;;6325853;27;20101;-73
2023/02/14 06:55:57;;;;;;;67.63;35.45;;;;;;;;;;6325952;28;20097;-73
2023/02/14 06:59:00;;;;;;;64.72;34.88;;;;;;;;;;6323664;27;20345;-73
2023/02/14 07:02:02;;;;;;;67.00;35.78;;;;;;;;;;6321024;28;20043;-72
2023/02/14 07:05:04;;;;;;;61.30;34.78;;;;;;;;;;6319852;27;20113;-72
2023/02/14 07:08:07;;;;;;;65.40;34.50;;;;;;;;;;6321175;28;20063;-72
2023/02/14 07:11:08;;;;;;;68.38;36.55;;;;;;;;;;6320475;27;20051;-72
2023/02/14 07:14:12;;;;;;;67.28;37.03;;;;;;;;;;6322607;28;20086;-73
2023/02/14 07:17:14;;;;;;;62.67;35.60;;;;;;;;;;6318635;28;20052;-72
2023/02/14 07:20:17;;;;;;;64.10;35.47;;;;;;;;;;6315521;28;20052;-73
2023/02/14 07:23:18;;;;;;;62.80;35.25;;;;;;;;;;6320367;27;20272;-73
2023/02/14 07:26:20;;;;;;;71.72;36.95;;;;;;;;;;6322971;28;20043;-74
2023/02/14 07:29:23;;;;;;;82.68;36.70;;;;;;;;;;6319256;27;20356;-73
2023/02/14 07:32:25;;;;;;;64.15;35.38;;;;;;;;;;6320740;27;20241;-74
2023/02/14 07:35:26;;;;;;;64.13;34.25;;;;;;;;;;6320405;28;20131;-74
2023/02/14 07:38:29;;;;;;;63.67;35.47;;;;;;;;;;6324597;27;20055;-74
2023/02/14 07:41:31;;;;;;;69.05;36.63;;;;;;;;;;6327897;27;20077;-73
2023/02/14 07:44:34;;;;;;;60.97;34.70;;;;;;;;;;6320631;27;20056;-74
2023/02/14 07:47:35;;;;;;;61.05;34.75;;;;;;;;;;6323357;28;20156;-73
2023/02/14 07:50:37;;;;;;;68.88;36.33;;;;;;;;;;6325264;27;20076;-73
2023/02/14 07:53:39;;;;;;;59.60;34.67;;;;;;;;;;6328882;27;20048;-74
2023/02/14 07:56:41;;;;;;;63.20;36.30;;;;;;;;;;6328305;27;20370;-73
2023/02/14 07:59:44;;;;;;;67.40;36.58;;;;;;;;;;6326310;28;20051;-73
2023/02/14 08:02:46;;;;;;;70.03;37.22;;;;;;;;;;6325946;28;20055;-73
2023/02/14 08:05:55;;;;;;;60.47;35.25;;;;;;;;;;6324932;28;20047;-73
2023/02/14 08:08:57;;;;;;;63.75;35.92;;;;;;;;;;6328245;27;20123;-74
2023/02/14 08:18:40;;;;;;;66.38;37.63;;;;;;;;;;6325215;28;20052;-74
2023/02/14 08:21:41;;;;;;;61.42;37.13;;;;;;;;;;6326888;28;20052;-73
2023/02/14 08:24:43;;;;;;;61.42;35.42;;;;;;;;;;6327639;27;20060;-73
2023/02/14 08:27:45;;;;;;;64.65;35.10;;;;;;;;;;6324114;28;20060;-73
2023/02/14 08:30:49;;;;;;;65.70;37.03;;;;;;;;;;6329791;27;20060;-73
2023/02/14 08:33:50;;;;;;;66.20;37.50;;;;;;;;;;6327320;27;20064;-74
2023/02/14 08:36:52;;;;;;;65.22;37.45;;;;;;;;;;6325534;27;20097;-74
2023/02/14 08:39:54;;;;;;;67.45;38.90;;;;;;;;;;6329956;27;20063;-74
2023/02/14 08:42:55;;;;;;;60.53;36.65;;;;;;;;;;6325810;28;20071;-74
2023/02/14 08:45:58;;;;;;;57.92;37.13;;;;;;;;;;6324807;28;20093;-74
2023/02/14 08:49:00;;;;;;;61.78;37.20;;;;;;;;;;6325999;27;20343;-75
2023/02/14 08:52:02;;;;;;;62.90;37.90;;;;;;;;;;6326923;27;20044;-74
2023/02/14 08:55:04;;;;;;;60.83;36.33;;;;;;;;;;6324342;28;20103;-74
2023/02/14 08:58:06;;;;;;;60.40;35.75;;;;;;;;;;6323230;28;20101;-74
2023/02/14 09:01:10;;;;;;;55.67;35.70;;;;;;;;;;6325295;27;20559;-74
2023/02/14 09:04:12;;;;;;;59.38;34.20;;;;;;;;;;6322144;27;20270;-74
2023/02/14 09:07:14;;;;;;;58.40;35.20;;;;;;;;;;6324704;28;20048;-74
2023/02/14 09:10:17;;;;;;;62.58;35.97;;;;;;;;;;6326971;28;20109;-76
2023/02/14 09:13:18;;;;;;;55.70;31.52;;;;;;;;;;6321949;27;20044;-76
2023/02/14 09:16:23;;;;;;;54.90;31.35;;;;;;;;;;6323942;28;20057;-75
2023/02/14 09:19:25;;;;;;;52.40;30.33;;;;;;;;;;6324489;27;20047;-76
2023/02/14 09:22:26;;;;;;;46.97;27.75;;;;;;;;;;6327610;27;20108;-75
2023/02/14 09:25:28;;;;;;;46.42;27.00;;;;;;;;;;6325945;27;20056;-76
2023/02/14 09:28:30;;;;;;;47.92;28.55;;;;;;;;;;6325708;28;20047;-75
2023/02/14 09:31:33;;;;;;;50.50;28.48;;;;;;;;;;6325197;28;20056;-74
2023/02/14 09:41:33;;;;;;;50.17;30.27;;;;;;;;;;6327090;28;20056;-74
2023/02/14 09:44:37;;;;;;;50.83;29.17;;;;;;;;;;6322679;27;20071;-74
2023/02/14 09:47:44;;;;;;;52.83;29.17;;;;;;;;;;6325574;28;20074;-74
2023/02/14 09:50:49;;;;;;;55.10;30.30;;;;;;;;;;6323503;27;20072;-74
2023/02/14 09:53:53;;;;;;;51.20;29.67;;;;;;;;;;6324511;28;20048;-74
2023/02/14 09:56:58;;;;;;;54.27;30.67;;;;;;;;;;6327423;27;20056;-74
2023/02/14 10:00:05;;;;;;;50.13;28.25;;;;;;;;;;6326564;28;20477;-75
2023/02/14 10:03:18;;;;;;;52.05;28.38;;;;;;;;;;6327633;27;20054;-73
2023/02/14 10:06:44;;;;;;;51.05;28.85;;;;;;;;;;6326048;28;20125;-74
2023/02/14 10:09:54;;;;;;;46.80;27.80;;;;;;;;;;6322481;28;20040;-74
2023/02/14 10:13:01;;;;;;;46.13;25.92;;;;;;;;;;6326451;27;20051;-74
2023/02/14 10:16:08;;;;;;;47.25;27.95;;;;;;;;;;6323617;27;20041;-74
2023/02/14 10:19:18;;;;;;;50.95;26.92;;;;;;;;;;6322414;27;20081;-74
2023/02/14 10:22:23;;;;;;;46.35;27.90;;;;;;;;;;6323861;28;20060;-74
2023/02/14 10:25:26;;;;;;;49.10;29.63;;;;;;;;;;6324420;28;20243;-74
2023/02/14 10:28:32;;;;;;;48.47;29.08;;;;;;;;;;6321430;28;20060;-74
2023/02/14 10:31:38;;;;;;;50.13;28.80;;;;;;;;;;6324383;27;20652;-74
2023/02/14 10:34:46;;;;;;;52.20;30.33;;;;;;;;;;6326607;28;20047;-74
2023/02/14 10:37:57;;;;;;;47.53;28.67;;;;;;;;;;6322981;27;20339;-74
2023/02/14 10:41:11;;;;;;;48.70;28.63;;;;;;;;;;6325767;27;20048;-73
2023/02/14 10:44:23;;;;;;;52.00;30.73;;;;;;;;;;6323708;27;20568;-73
2023/02/14 10:47:37;;;;;;;49.88;28.88;;;;;;;;;;6320331;28;20356;-73
2023/02/14 10:50:47;;;;;;;57.67;31.33;;;;;;;;;;6323219;28;20251;-74
2023/02/14 10:53:57;;;;;;;65.13;32.22;;;;;;;;;;6322216;28;20271;-74
2023/02/14 10:57:01;;;;;;;53.03;32.20;;;;;;;;;;6322127;27;20101;-74
2023/02/14 11:00:05;;;;;;;54.90;32.30;;;;;;;;;;6328018;28;20059;-73
2023/02/14 11:03:09;;;;;;;56.03;32.60;;;;;;;;;;6323714;28;20055;-74
2023/02/14 11:06:12;;;;;;;;;;;;;;;;;;6322930;28;20066;-74
2023/02/14 11:09:14;;;;;;;52.83;30.92;;;;;;;;;;6321502;28;19994;-74
2023/02/14 11:12:33;;;;;;;52.42;30.63;;;;;;;;;;6324247;27;20278;-73
2023/02/14 11:15:39;;;;;;;52.08;31.40;;;;;;;;;;6325021;28;20044;-73
2023/02/14 11:18:41;;;;;;;56.13;32.88;;;;;;;;;;6323183;28;21085;-74
2023/02/14 11:21:45;;;;;;;52.08;31.20;;;;;;;;;;6326351;28;20044;-73
2023/02/14 11:24:47;;;;;;;52.95;30.30;;;;;;;;;;6326655;28;20384;-74
2023/02/14 11:27:52;;;;;;;49.67;28.58;;;;;;;;;;6330415;28;20055;-73
2023/02/14 11:30:54;;;;;;;54.65;31.40;;;;;;;;;;6328959;27;20051;-74
2023/02/14 11:33:56;;;;;;;55.70;30.65;;;;;;;;;;6326472;27;20389;-74
2023/02/14 11:37:00;;;;;;;53.22;29.58;;;;;;;;;;6323572;27;20294;-73
2023/02/14 11:40:02;;;;;;;50.13;28.20;;;;;;;;;;6329429;27;20055;-74
2023/02/14 11:43:18;;;;;;;49.92;28.15;;;;;;;;;;6325037;28;20075;-73
2023/02/14 11:46:26;;;;;;;49.85;27.67;;;;;;;;;;6328300;28;20086;-74
2023/02/14 11:49:30;;;;;;;49.95;28.92;;;;;;;;;;6327765;28;20062;-74
2023/02/14 11:52:39;;;;;;;48.03;29.25;;;;;;;;;;6326437;28;20052;-74
2023/02/14 11:55:41;;;;;;;50.60;30.70;;;;;;;;;;6327285;27;20062;-75
2023/02/14 11:58:48;;;;;;;51.63;29.55;;;;;;;;;;6314143;27;20056;-74
2023/02/14 12:01:51;;;;;;;50.45;30.02;;;;;;;;;;6328214;28;20252;-74
2023/02/14 12:04:56;;;;;;;53.38;30.50;;;;;;;;;;6325027;28;20451;-74
2023/02/14 12:08:01;;;;;;;52.80;30.10;;;;;;;;;;6326989;28;20048;-74
2023/02/14 12:11:04;;;;;;;50.65;30.15;;;;;;;;;;6325784;28;20071;-74
2023/02/14 12:14:05;;;;;;;48.92;29.05;;;;;;;;;;6328474;28;20060;-74
2023/02/14 12:17:16;;;;;;;51.15;29.17;;;;;;;;;;6326872;28;20052;-74
2023/02/14 12:20:20;;;;;;;51.45;30.20;;;;;;;;;;6327020;28;20044;-74
2023/02/14 12:23:26;;;;;;;48.97;28.52;;;;;;;;;;6328402;27;20055;-74
2023/02/14 12:26:31;;;;;;;52.88;30.40;;;;;;;;;;6327417;28;20097;-74
2023/02/14 12:29:35;;;;;;;48.60;29.25;;;;;;;;;;6328195;28;20052;-74
2023/02/14 12:32:48;;;;;;;49.38;29.75;;;;;;;;;;6324353;28;20052;-74
2023/02/14 12:35:55;;;;;;;51.77;29.57;;;;;;;;;;6325320;27;20044;-74
2023/02/14 12:39:07;;;;;;;54.15;31.27;;;;;;;;;;6322147;27;20067;-73
2023/02/14 12:42:17;;;;;;;51.63;31.15;;;;;;;;;;6327085;27;20059;-73
2023/02/14 12:45:23;;;;;;;54.38;31.33;;;;;;;;;;6323119;28;20040;-74
2023/02/14 12:48:32;;;;;;;51.67;31.23;;;;;;;;;;6323834;27;20057;-74
2023/02/14 12:51:38;;;;;;;47.88;29.88;;;;;;;;;;6323964;27;20059;-73
2023/02/14 12:54:49;;;;;;;49.50;29.73;;;;;;;;;;6326653;27;20086;-73
2023/02/14 12:57:54;;;;;;;53.88;30.35;;;;;;;;;;6325194;28;20094;-73
2023/02/14 13:01:05;;;;;;;49.95;30.67;;;;;;;;;;6325687;28;20058;-74
2023/02/14 13:04:23;;;;;;;50.85;29.42;;;;;;;;;;6323750;28;20052;-74
2023/02/14 13:07:38;;;;;;;48.75;28.63;;;;;;;;;;6326713;28;20063;-74
2023/02/14 13:10:50;;;;;;;48.28;30.08;;;;;;;;;;6323453;27;20089;-74
2023/02/14 13:14:03;;;;;;;48.25;30.02;;;;;;;;;;6327936;28;20988;-74
2023/02/14 13:17:10;;;;;;;50.17;29.90;;;;;;;;;;6326254;28;20064;-74
2023/02/14 13:20:44;;;;;;;49.30;31.40;;;;;;;;;;6326613;28;20044;-74
2023/02/14 13:23:47;;;;;;;51.20;31.55;;;;;;;;;;6249930;28;20360;-74
2023/02/14 13:26:54;;;;;;;51.33;31.05;;;;;;;;;;6247433;28;20144;-74
2023/02/14 13:29:59;;;;;;;55.78;30.77;;;;;;;;;;6246590;28;20392;-74
2023/02/14 13:33:06;;;;;;;54.53;32.25;;;;;;;;;;6245070;28;20050;-74
2023/02/14 13:36:11;;;;;;;49.85;31.35;;;;;;;;;;6248708;28;20052;-74
2023/02/14 13:39:19;;;;;;;51.63;32.67;;;;;;;;;;6245269;28;20042;-74
2023/02/14 13:42:55;;;;;;;54.58;31.45;;;;;;;;;;6247662;28;20103;-74
2023/02/14 13:45:57;;;;;;;55.22;33.45;;;;;;;;;;6246914;28;20049;-74
2023/02/14 13:49:01;;;;;;;54.38;33.33;;;;;;;;;;6246093;28;20053;-74
2023/02/14 13:52:04;;;;;;;58.38;34.45;;;;;;;;;;6247813;28;20067;-74
2023/02/14 13:55:07;;;;;;;60.35;35.22;;;;;;;;;;6244761;28;20057;-74
2023/02/14 13:58:17;;;;;;;58.08;34.67;;;;;;;;;;6299326;28;20102;-74
2023/02/14 14:01:33;;;;;;;63.17;36.08;;;;;;;;;;6325667;28;20054;-73
2023/02/14 14:04:37;;;;;;;52.97;32.50;;;;;;;;;;6323969;28;20055;-74
2023/02/14 14:07:38;;;;;;;59.50;33.95;;;;;;;;;;6323586;27;20052;-74
2023/02/14 14:10:45;;;;;;;59.08;34.47;;;;;;;;;;6322979;27;20286;-74
2023/02/14 14:14:00;;;;;;;60.42;35.13;;;;;;;;;;6325039;28;20112;-73
2023/02/14 14:17:02;;;;;;;60.97;35.47;;;;;;;;;;6322120;27;20081;-74
2023/02/14 14:20:25;;;;;;;58.58;35.88;;;;;;;;;;6323621;28;20044;-74
2023/02/14 14:23:31;;;;;;;59.03;34.33;;;;;;;;;;6322594;28;20331;-74
2023/02/14 14:26:38;;;;;;;53.47;32.25;;;;;;;;;;6324017;28;20375;-74
2023/02/14 14:29:45;;;;;;;57.22;35.03;;;;;;;;;;6324816;28;20117;-74
2023/02/14 14:32:46;;;;;;;60.33;34.22;;;;;;;;;;6322107;28;20244;-71
2023/02/14 14:35:52;;;;;;;60.45;34.20;;;;;;;;;;6323616;28;20051;-72
2023/02/14 14:38:54;;;;;;;58.72;33.72;;;;;;;;;;6322917;28;20388;-72
2023/02/14 14:41:57;;;;;;;56.95;33.88;;;;;;;;;;6326405;28;20043;-75
2023/02/14 14:45:02;;;;;;;55.80;33.85;;;;;;;;;;6322840;28;20298;-75
2023/02/14 14:48:11;;;;;;;57.63;33.38;;;;;;;;;;6316593;28;20051;-75
2023/02/14 14:51:19;;;;;;;60.42;33.65;;;;;;;;;;6322825;28;20047;-74
2023/02/14 14:54:23;;;;;;;54.53;34.30;;;;;;;;;;6323085;28;20080;-76
2023/02/14 14:57:25;;;;;;;62.20;35.75;;;;;;;;;;6323813;28;20062;-75
2023/02/14 15:00:30;;;;;;;62.28;35.85;;;;;;;;;;6322876;27;20059;-75
2023/02/14 15:03:32;;;;;;;193.20;127.97;;;;;;;;;;6322645;28;20052;-75
2023/02/14 15:06:33;;;;;;;79.25;46.20;;;;;;;;;;6321626;27;20129;-75
2023/02/14 15:09:35;;;;;;;72.28;47.17;;;;;;;;;;6323104;28;20052;-75
2023/02/14 15:15:58;;;;;;;59.38;34.85;;;;;;;;;;6321397;28;20227;-77
2023/02/14 15:19:07;;;;;;;58.28;36.13;;;;;;;;;;6319778;28;20055;-77
2023/02/14 15:22:20;;;;;;;61.60;35.25;;;;;;;;;;6324905;27;20083;-77
2023/02/14 15:25:23;;;;;;;73.78;44.22;;;;;;;;;;6325752;28;20331;-76
2023/02/14 15:28:30;;;;;;;85.25;49.72;;;;;;;;;;6322848;28;20105;-75
2023/02/14 15:31:35;;;;;;;66.72;36.33;;;;;;;;;;6321622;28;20051;-76
2023/02/14 15:34:37;;;;;;;90.85;53.08;;;;;;;;;;6323129;27;20052;-77
2023/02/14 15:37:38;;;;;;;60.03;34.95;;;;;;;;;;6321598;28;20064;-76
2023/02/14 15:40:42;;;;;;;57.95;35.03;;;;;;;;;;6324098;27;20114;-75
2023/02/14 15:43:49;;;;;;;62.08;33.53;;;;;;;;;;6324033;28;20060;-76
2023/02/14 15:46:55;;;;;;;58.75;34.33;;;;;;;;;;6322871;27;20055;-75
2023/02/14 15:49:58;;;;;;;60.10;33.90;;;;;;;;;;6319895;27;20270;-75
2023/02/14 15:53:04;;;;;;;62.13;34.35;;;;;;;;;;6321644;28;20047;-74
2023/02/14 15:56:08;;;;;;;59.30;34.28;;;;;;;;;;6322249;28;20083;-74
2023/02/14 15:59:17;;;;;;;63.60;33.97;;;;;;;;;;6320762;27;20263;-75
2023/02/14 16:02:28;;;;;;;59.10;32.58;;;;;;;;;;6323492;28;20051;-74
2023/02/14 16:05:29;;;;;;;59.97;34.80;;;;;;;;;;6318515;27;20044;-75
2023/02/14 16:08:32;;;;;;;60.75;32.97;;;;;;;;;;6320921;28;20275;-75
2023/02/14 16:11:35;;;;;;;65.17;35.17;;;;;;;;;;6329908;28;20207;-76
2023/02/14 16:14:39;;;;;;;63.60;34.30;;;;;;;;;;6326835;28;20082;-75
2023/02/14 16:17:43;;;;;;;65.07;33.65;;;;;;;;;;6321371;28;20049;-75
2023/02/14 16:20:45;;;;;;;62.05;34.13;;;;;;;;;;6323124;28;20384;-74
2023/02/14 16:24:03;;;;;;;64.53;33.38;;;;;;;;;;6326205;27;20056;-76
2023/02/14 16:27:06;;;;;;;64.40;32.78;;;;;;;;;;6325906;27;20420;-75
2023/02/14 16:30:15;;;;;;;61.20;31.23;;;;;;;;;;6326621;28;20052;-74
2023/02/14 16:33:21;;;;;;;65.85;32.40;;;;;;;;;;6322823;27;20094;-75
2023/02/14 16:36:26;;;;;;;63.67;31.05;;;;;;;;;;6326994;28;20052;-75
2023/02/14 16:39:28;;;;;;;66.53;31.70;;;;;;;;;;6325756;28;20039;-75
2023/02/14 16:42:31;;;;;;;72.07;37.00;;;;;;;;;;6324782;27;20053;-74
2023/02/14 16:45:33;;;;;;;82.47;41.65;;;;;;;;;;6326751;28;20067;-74
2023/02/14 16:48:36;;;;;;;86.57;41.60;;;;;;;;;;6328334;28;20104;-77
2023/02/14 16:51:38;;;;;;;66.90;34.42;;;;;;;;;;6325417;28;20094;-74
2023/02/14 16:54:39;;;;;;;101.25;54.08;;;;;;;;;;6326767;27;20051;-74
2023/02/14 16:57:43;;;;;;;64.00;33.13;;;;;;;;;;6326403;28;20145;-73
2023/02/14 17:00:45;;;;;;;62.47;31.90;;;;;;;;;;6324138;28;20059;-74
2023/02/14 17:03:48;;;;;;;61.75;31.65;;;;;;;;;;6326370;28;20240;-73
2023/02/14 17:06:53;;;;;;;62.20;30.07;;;;;;;;;;6328856;28;20067;-73
2023/02/14 17:09:56;;;;;;;68.90;31.98;;;;;;;;;;6323334;28;20087;-73
2023/02/14 17:12:58;;;;;;;62.00;30.30;;;;;;;;;;6325657;28;20267;-73
2023/02/14 17:16:01;;;;;;;63.80;30.65;;;;;;;;;;6325090;28;20068;-74
2023/02/14 17:19:04;;;;;;;58.92;29.67;;;;;;;;;;6323845;28;20075;-73
2023/02/14 17:22:06;;;;;;;59.40;29.37;;;;;;;;;;6321704;28;20430;-72
2023/02/14 17:25:08;;;;;;;61.28;29.75;;;;;;;;;;6327486;28;20063;-75
2023/02/14 17:28:10;;;;;;;62.47;30.17;;;;;;;;;;6327302;27;20066;-73
2023/02/14 17:31:12;;;;;;;64.15;31.52;;;;;;;;;;6324275;28;20140;-74
2023/02/14 17:34:15;;;;;;;64.28;30.25;;;;;;;;;;6324556;28;20282;-75
2023/02/14 17:37:18;;;;;;;62.10;30.50;;;;;;;;;;6323853;28;20066;-74
2023/02/14 17:40:20;;;;;;;61.00;30.30;;;;;;;;;;6323840;28;20036;-74
2023/02/14 17:43:22;;;;;;;61.42;29.23;;;;;;;;;;6325032;27;20056;-74
2023/02/14 17:46:24;;;;;;;57.78;29.02;;;;;;;;;;6325302;28;20115;-75
2023/02/14 17:49:27;;;;;;;57.00;28.10;;;;;;;;;;6326732;28;20116;-75
2023/02/14 17:52:29;;;;;;;61.05;29.90;;;;;;;;;;6324300;27;20063;-75
2023/02/14 17:55:31;;;;;;;61.28;28.40;;;;;;;;;;6323246;28;20080;-73
2023/02/14 17:58:33;;;;;;;59.70;29.58;;;;;;;;;;6324780;27;20052;-75
2023/02/14 18:01:35;;;;;;;60.78;29.85;;;;;;;;;;6322630;27;20323;-75
2023/02/14 18:04:38;;;;;;;63.25;30.55;;;;;;;;;;6323617;28;20058;-75
2023/02/14 18:07:39;;;;;;;61.07;30.40;;;;;;;;;;6322810;28;20048;-74
2023/02/14 18:10:41;;;;;;;61.80;29.95;;;;;;;;;;6325300;28;20059;-73
2023/02/14 18:13:44;;;;;;;59.13;29.75;;;;;;;;;;6327047;28;20056;-76
2023/02/14 18:16:45;;;;;;;62.03;29.40;;;;;;;;;;6323385;28;20131;-73
2023/02/14 18:19:49;;;;;;;59.40;29.40;;;;;;;;;;6321686;28;20101;-73
2023/02/14 18:22:51;;;;;;;68.10;29.45;;;;;;;;;;6319593;28;20415;-73
2023/02/14 18:25:55;;;;;;;61.00;29.35;;;;;;;;;;6320507;28;20044;-73
2023/02/14 18:28:57;;;;;;;61.55;30.48;;;;;;;;;;6317772;27;20047;-73
2023/02/14 18:31:59;;;;;;;60.72;29.80;;;;;;;;;;6325787;28;20052;-73
2023/02/14 18:35:02;;;;;;;59.67;30.92;;;;;;;;;;6319644;28;20052;-74
2023/02/14 18:38:04;;;;;;;62.10;29.52;;;;;;;;;;6322355;27;20056;-74
2023/02/14 18:41:08;;;;;;;63.17;29.65;;;;;;;;;;6323311;28;20101;-73